createdAt,value
2019-02-18T00:01:24.457Z,-1.00
2019-02-18T00:03:51.246Z,-1.00
2019-02-18T00:06:18.117Z,-0.90
2019-02-18T00:08:45.023Z,-1.00
2019-02-18T00:11:11.918Z,-1.10
2019-02-18T00:13:38.672Z,-1.10
2019-02-18T00:16:05.573Z,-1.00
2019-02-18T00:18:32.457Z,-1.10
2019-02-18T00:20:59.242Z,-1.00
2019-02-18T00:23:26.248Z,-1.00
2019-02-18T00:25:53.279Z,-1.10
2019-02-18T00:28:20.036Z,-1.10
2019-02-18T00:30:46.992Z,-1.10
2019-02-18T00:33:13.799Z,-1.10
2019-02-18T00:35:40.804Z,-1.20
2019-02-18T00:38:07.573Z,-1.30
2019-02-18T00:40:34.458Z,-1.40
2019-02-18T00:43:01.243Z,-1.50
2019-02-18T00:45:28.013Z,-1.50
2019-02-18T00:47:55.109Z,-1.50
2019-02-18T00:50:22.081Z,-1.60
2019-02-18T00:52:48.834Z,-1.60
2019-02-18T00:55:15.939Z,-1.60
2019-02-18T00:57:42.671Z,-1.60
2019-02-18T01:00:10.861Z,-1.50
2019-02-18T01:02:37.818Z,-1.60
2019-02-18T01:05:05.392Z,-1.50
2019-02-18T01:07:34.836Z,-1.40
2019-02-18T01:10:01.210Z,-1.10
2019-02-18T01:12:28.050Z,-1.00
2019-02-18T01:14:54.882Z,-0.90
2019-02-18T01:17:21.989Z,-0.80
2019-02-18T01:19:48.770Z,-0.90
2019-02-18T01:22:15.524Z,-1.10
2019-02-18T01:24:42.285Z,-1.20
2019-02-18T01:27:09.381Z,-1.30
2019-02-18T01:29:36.137Z,-1.20
2019-02-18T01:32:02.898Z,-1.10
2019-02-18T01:34:29.767Z,-1.10
2019-02-18T01:36:56.804Z,-1.20
2019-02-18T01:39:23.563Z,-1.40
2019-02-18T01:41:50.318Z,-1.40
2019-02-18T01:44:17.074Z,-1.40
2019-02-18T01:46:43.937Z,-1.30
2019-02-18T01:49:10.674Z,-1.30
2019-02-18T01:51:37.785Z,-1.40
2019-02-18T01:54:04.775Z,-1.40
2019-02-18T01:56:31.514Z,-1.30
2019-02-18T01:58:58.299Z,-1.20
2019-02-18T02:01:25.053Z,-1.20
2019-02-18T02:03:51.812Z,-1.20
2019-02-18T02:06:18.585Z,-1.10
2019-02-18T02:08:45.325Z,-1.10
2019-02-18T02:11:12.164Z,-1.10
2019-02-18T02:13:39.186Z,-1.10
2019-02-18T02:16:08.529Z,-1.10
2019-02-18T02:18:35.284Z,-1.10
2019-02-18T02:21:02.243Z,-1.10
2019-02-18T02:23:29.013Z,-1.30
2019-02-18T02:25:55.851Z,-1.50
2019-02-18T02:28:22.728Z,-1.50
2019-02-18T02:30:49.842Z,-1.60
2019-02-18T02:33:16.729Z,-1.70
2019-02-18T02:35:43.601Z,-1.60
2019-02-18T02:38:10.365Z,-1.70
2019-02-18T02:40:37.101Z,-1.80
2019-02-18T02:43:04.311Z,-1.70
2019-02-18T02:45:31.178Z,-1.70
2019-02-18T02:47:57.928Z,-1.60
2019-02-18T02:50:24.881Z,-1.50
2019-02-18T02:52:51.641Z,-1.50
2019-02-18T02:55:18.482Z,-1.50
2019-02-18T02:57:45.609Z,-1.50
2019-02-18T03:00:12.806Z,-1.40
2019-02-18T03:02:39.818Z,-1.50
2019-02-18T03:05:06.777Z,-1.40
2019-02-18T03:07:33.626Z,-1.50
2019-02-18T03:10:00.399Z,-1.40
2019-02-18T03:12:27.235Z,-1.40
2019-02-18T03:14:54.233Z,-1.40
2019-02-18T03:17:20.990Z,-1.40
2019-02-18T03:19:47.883Z,-1.40
2019-02-18T03:22:14.632Z,-1.50
2019-02-18T03:25:34.514Z,-1.50
2019-02-18T03:28:07.881Z,-1.50
2019-02-18T03:30:57.153Z,-1.60
2019-02-18T03:33:27.522Z,-1.70
2019-02-18T03:35:54.306Z,-1.70
2019-02-18T03:38:31.179Z,-1.60
2019-02-18T03:40:49.805Z,-1.60
2019-02-18T03:43:16.905Z,-1.70
2019-02-18T03:45:43.655Z,-1.80
2019-02-18T03:48:10.593Z,-1.70
2019-02-18T03:50:37.475Z,-1.60
2019-02-18T03:53:04.345Z,-1.70
2019-02-18T03:55:31.576Z,-1.80
2019-02-18T03:57:58.620Z,-1.80
2019-02-18T04:00:25.655Z,-1.70
2019-02-18T04:02:52.504Z,-1.60
2019-02-18T04:05:19.383Z,-1.50
2019-02-18T04:07:46.131Z,-1.60
2019-02-18T04:10:13.496Z,-1.60
2019-02-18T04:12:40.279Z,-1.80
2019-02-18T04:15:07.623Z,-2.00
2019-02-18T04:17:34.532Z,-2.10
2019-02-18T04:20:02.259Z,-2.10
2019-02-18T04:22:29.150Z,-2.20
2019-02-18T04:24:55.907Z,-2.20
2019-02-18T04:27:22.785Z,-2.30
2019-02-18T04:29:49.541Z,-2.30
2019-02-18T04:32:16.333Z,-2.20
2019-02-18T04:34:43.126Z,-2.40
2019-02-18T04:37:09.873Z,-2.30
2019-02-18T04:39:36.895Z,-2.30
2019-02-18T04:42:03.849Z,-2.40
2019-02-18T04:44:30.884Z,-2.30
2019-02-18T04:46:57.670Z,-2.40
2019-02-18T04:49:24.876Z,-2.40
2019-02-18T04:51:51.926Z,-2.30
2019-02-18T04:54:18.951Z,-2.40
2019-02-18T04:56:45.732Z,-2.40
2019-02-18T04:59:12.501Z,-2.40
2019-02-18T05:01:39.348Z,-2.30
2019-02-18T05:04:06.119Z,-2.30
2019-02-18T05:06:32.905Z,-2.30
2019-02-18T05:09:05.189Z,-2.30
2019-02-18T05:11:28.413Z,-2.30
2019-02-18T05:13:55.401Z,-2.30
2019-02-18T05:16:22.148Z,-2.40
2019-02-18T05:18:48.997Z,-2.40
2019-02-18T05:21:15.892Z,-2.50
2019-02-18T05:23:42.630Z,-2.50
2019-02-18T05:26:09.398Z,-2.40
2019-02-18T05:28:36.261Z,-2.40
2019-02-18T05:31:03.139Z,-2.30
2019-02-18T05:33:30.090Z,-2.30
2019-02-18T05:35:57.101Z,-2.30
2019-02-18T05:38:23.863Z,-2.40
2019-02-18T05:40:50.660Z,-2.50
2019-02-18T05:43:17.441Z,-2.50
2019-02-18T05:45:44.201Z,-2.40
2019-02-18T05:48:11.105Z,-2.40
2019-02-18T05:50:37.982Z,-2.30
2019-02-18T05:53:05.023Z,-2.20
2019-02-18T05:55:32.442Z,-2.20
2019-02-18T05:57:59.453Z,-2.40
2019-02-18T06:00:26.220Z,-2.40
2019-02-18T06:02:52.965Z,-2.30
2019-02-18T06:05:19.965Z,-2.20
2019-02-18T06:07:46.876Z,-2.20
2019-02-18T06:10:13.943Z,-2.40
2019-02-18T06:12:42.536Z,-2.40
2019-02-18T06:15:09.498Z,-2.30
2019-02-18T06:17:36.386Z,-2.30
2019-02-18T06:20:03.501Z,-2.30
2019-02-18T06:22:30.353Z,-2.40
2019-02-18T06:24:57.203Z,-2.30
2019-02-18T06:27:24.058Z,-2.30
2019-02-18T06:29:50.828Z,-2.30
2019-02-18T06:32:17.672Z,-2.20
2019-02-18T06:34:44.433Z,-2.20
2019-02-18T06:37:11.416Z,-2.30
2019-02-18T06:39:41.699Z,-2.30
2019-02-18T06:42:06.973Z,-2.20
2019-02-18T06:44:45.835Z,-2.20
2019-02-18T06:47:18.164Z,-2.30
2019-02-18T06:49:45.184Z,-2.20
2019-02-18T06:52:11.937Z,-2.20
2019-02-18T06:54:38.725Z,-2.20
2019-02-18T06:57:25.265Z,-2.20
2019-02-18T07:00:00.491Z,-2.20
2019-02-18T07:02:33.374Z,-2.00
2019-02-18T07:05:19.898Z,-2.10
2019-02-18T07:07:53.586Z,-1.70
2019-02-18T07:10:26.436Z,0.60
2019-02-18T07:12:53.407Z,1.80
2019-02-18T07:15:20.177Z,1.60
2019-02-18T07:17:47.341Z,2.70
2019-02-18T07:20:14.214Z,4.00
2019-02-18T07:22:41.209Z,4.90
2019-02-18T07:25:08.681Z,5.90
2019-02-18T07:27:35.458Z,6.50
2019-02-18T07:30:03.326Z,6.10
2019-02-18T07:32:30.080Z,6.80
2019-02-18T07:37:23.945Z,8.40
2019-02-18T07:40:00.775Z,8.60
2019-02-18T07:47:13.333Z,2.80
2019-02-18T07:49:40.096Z,2.10
2019-02-18T07:52:06.994Z,1.40
2019-02-18T07:54:33.761Z,1.30
2019-02-18T07:57:00.604Z,1.20
2019-02-18T07:59:27.593Z,1.10
2019-02-18T08:01:54.841Z,1.00
2019-02-18T08:04:21.871Z,0.90
2019-02-18T08:06:48.948Z,1.00
2019-02-18T08:09:15.825Z,1.00
2019-02-18T08:11:42.688Z,1.10
2019-02-18T08:14:09.538Z,1.20
2019-02-18T08:16:36.419Z,1.30
2019-02-18T08:19:03.291Z,1.40
2019-02-18T08:21:30.302Z,1.50
2019-02-18T08:24:00.336Z,1.60
2019-02-18T08:26:27.417Z,1.70
2019-02-18T08:28:54.266Z,1.80
2019-02-18T08:31:21.025Z,2.10
2019-02-18T08:33:47.896Z,2.10
2019-02-18T08:36:14.770Z,2.30
2019-02-18T08:38:41.542Z,2.40
2019-02-18T08:41:08.331Z,2.60
2019-02-18T08:43:35.200Z,2.80
2019-02-18T08:46:01.976Z,2.90
2019-02-18T08:48:28.769Z,2.90
2019-02-18T08:50:55.613Z,3.10
2019-02-18T08:55:49.593Z,3.40
2019-02-18T08:58:16.457Z,3.60
2019-02-18T09:00:43.273Z,3.80
2019-02-18T09:03:10.043Z,4.10
2019-02-18T09:13:02.114Z,13.70
2019-02-18T09:20:25.460Z,17.10
2019-02-18T09:23:14.551Z,18.40
2019-02-18T09:25:46.591Z,18.50
2019-02-18T09:28:13.448Z,18.50
2019-02-18T09:38:03.070Z,18.30
2019-02-18T09:40:29.953Z,18.60
2019-02-18T09:42:56.910Z,17.80
2019-02-18T09:47:50.852Z,19.90
2019-02-18T09:50:17.713Z,19.40
2019-02-18T09:55:11.696Z,20.10
2019-02-18T09:57:39.060Z,20.30
2019-02-18T10:00:06.053Z,20.40
2019-02-18T10:02:32.809Z,20.40
2019-02-18T10:05:00.265Z,20.60
2019-02-18T10:12:21.587Z,21.10
2019-02-18T10:14:48.348Z,19.20
2019-02-18T10:17:15.295Z,20.80
2019-02-18T10:19:43.096Z,20.90
2019-02-18T10:22:10.246Z,22.20
2019-02-18T10:24:37.340Z,21.90
2019-02-18T10:29:31.609Z,21.10
2019-02-18T10:34:25.353Z,23.50
2019-02-18T10:36:52.185Z,23.90
2019-02-18T10:39:18.945Z,22.50
2019-02-18T10:41:45.710Z,22.90
2019-02-18T10:46:40.709Z,24.40
2019-02-18T10:49:18.927Z,21.30
2019-02-18T10:51:36.884Z,21.80
2019-02-18T10:54:04.237Z,20.10
2019-02-18T10:56:31.113Z,21.70
2019-02-18T10:58:57.853Z,22.60
2019-02-18T11:01:24.982Z,23.50
2019-02-18T11:03:51.741Z,23.20
2019-02-18T11:08:45.891Z,21.70
2019-02-18T11:11:17.108Z,21.20
2019-02-18T11:16:08.451Z,21.50
2019-02-18T11:18:35.306Z,22.40
2019-02-18T11:21:02.067Z,20.50
2019-02-18T11:23:29.097Z,22.60
2019-02-18T11:25:56.226Z,17.50
2019-02-18T11:28:22.984Z,17.10
2019-02-18T11:30:49.905Z,16.80
2019-02-18T11:33:16.884Z,15.70
2019-02-18T11:35:43.634Z,15.50
2019-02-18T11:38:10.405Z,14.90
2019-02-18T11:40:37.274Z,14.10
2019-02-18T11:43:04.147Z,14.20
2019-02-18T11:45:30.902Z,13.90
2019-02-18T11:47:57.648Z,13.10
2019-02-18T11:50:24.397Z,12.70
2019-02-18T11:52:51.265Z,12.60
2019-02-18T11:55:18.270Z,12.80
2019-02-18T11:57:45.336Z,13.10
2019-02-18T12:00:12.635Z,13.10
2019-02-18T12:02:39.593Z,13.00
2019-02-18T12:05:07.679Z,12.90
2019-02-18T12:07:34.449Z,13.00
2019-02-18T12:10:01.234Z,12.90
2019-02-18T12:12:28.366Z,12.90
2019-02-18T12:14:55.713Z,13.20
2019-02-18T12:17:22.721Z,13.20
2019-02-18T12:19:50.005Z,13.10
2019-02-18T12:22:16.822Z,13.10
2019-02-18T12:24:43.870Z,13.10
2019-02-18T12:27:10.948Z,13.10
2019-02-18T12:29:37.985Z,13.10
2019-02-18T12:32:04.945Z,13.20
2019-02-18T12:34:32.216Z,13.40
2019-02-18T12:36:58.998Z,13.30
2019-02-18T12:39:25.785Z,13.20
2019-02-18T12:41:52.868Z,13.30
2019-02-18T12:44:19.885Z,13.40
2019-02-18T12:46:47.154Z,13.20
2019-02-18T12:49:14.261Z,13.30
2019-02-18T12:51:41.669Z,13.40
2019-02-18T12:54:08.818Z,13.30
2019-02-18T12:56:35.757Z,13.60
2019-02-18T12:59:02.732Z,13.50
2019-02-18T13:01:30.045Z,13.40
2019-02-18T13:03:57.318Z,13.90
2019-02-18T13:06:25.117Z,13.90
2019-02-18T13:08:52.076Z,13.90
2019-02-18T13:11:19.009Z,14.20
2019-02-18T13:13:45.876Z,14.30
2019-02-18T13:16:12.916Z,14.20
2019-02-18T13:18:39.776Z,14.00
2019-02-18T13:21:06.818Z,14.10
2019-02-18T13:23:33.775Z,14.90
2019-02-18T13:26:01.073Z,15.50
2019-02-18T13:28:28.305Z,15.70
2019-02-18T13:30:55.048Z,16.40
2019-02-18T13:33:22.211Z,18.20
2019-02-18T13:35:49.509Z,20.40
2019-02-18T13:38:16.846Z,22.90
2019-02-18T13:40:43.644Z,23.70
2019-02-18T13:43:10.580Z,24.10
2019-02-18T13:45:37.553Z,24.40
2019-02-18T13:48:04.556Z,22.60
2019-02-18T13:50:31.541Z,23.40
2019-02-18T13:52:58.890Z,25.30
2019-02-18T13:55:25.814Z,25.30
2019-02-18T14:07:41.825Z,24.80
2019-02-18T14:10:08.837Z,25.60
2019-02-18T14:12:36.337Z,26.00
2019-02-18T14:15:03.733Z,25.50
2019-02-18T14:19:57.644Z,27.30
2019-02-18T14:22:24.977Z,27.00
2019-02-18T14:27:18.849Z,25.20
2019-02-18T14:29:46.153Z,23.50
2019-02-18T14:32:13.448Z,24.00
2019-02-18T14:34:40.529Z,26.50
2019-02-18T14:37:07.421Z,26.40
2019-02-18T14:39:34.692Z,26.10
2019-02-18T14:44:28.418Z,25.10
2019-02-18T14:46:55.276Z,23.80
2019-02-18T14:49:22.462Z,23.70
2019-02-18T14:51:49.600Z,23.60
2019-02-18T14:54:16.899Z,23.90
2019-02-18T14:59:11.133Z,24.20
2019-02-18T15:01:38.200Z,25.70
2019-02-18T15:04:05.253Z,26.10
2019-02-18T15:06:32.689Z,25.00
2019-02-18T15:09:00.007Z,24.60
2019-02-18T15:11:26.844Z,23.40
2019-02-18T15:13:53.784Z,23.50
2019-02-18T15:16:20.644Z,22.40
2019-02-18T15:18:47.641Z,21.70
2019-02-18T15:21:14.486Z,22.10
2019-02-18T15:23:41.452Z,22.40
2019-02-18T15:26:08.544Z,22.40
2019-02-18T15:28:35.776Z,22.00
2019-02-18T15:31:02.656Z,21.40
2019-02-18T15:35:56.405Z,16.70
2019-02-18T15:38:23.176Z,16.50
2019-02-18T15:40:49.928Z,15.90
2019-02-18T15:48:11.097Z,14.80
2019-02-18T15:50:37.949Z,14.70
2019-02-18T15:53:05.160Z,17.20
2019-02-18T15:57:59.454Z,18.10
2019-02-18T16:02:53.981Z,17.10
2019-02-18T16:05:21.020Z,17.10
2019-02-18T16:07:48.029Z,15.60
2019-02-18T16:10:14.907Z,14.20
2019-02-18T16:12:50.222Z,12.90
2019-02-18T16:15:10.716Z,12.60
2019-02-18T16:17:37.670Z,12.10
2019-02-18T16:20:05.377Z,12.10
2019-02-18T16:22:32.128Z,11.70
2019-02-18T16:24:59.939Z,11.30
2019-02-18T16:27:26.777Z,11.00
2019-02-18T16:32:20.533Z,10.50
2019-02-18T16:34:47.430Z,10.30
2019-02-18T16:37:14.616Z,10.10
2019-02-18T16:39:41.465Z,9.80
2019-02-18T16:42:08.885Z,9.60
2019-02-18T16:44:35.728Z,9.40
2019-02-18T16:47:02.849Z,9.30
2019-02-18T16:49:30.049Z,9.10
2019-02-18T16:51:56.822Z,8.80
2019-02-18T16:54:23.972Z,8.70
2019-02-18T16:56:51.180Z,8.70
2019-02-18T16:59:17.933Z,8.50
2019-02-18T17:01:45.016Z,8.10
2019-02-18T17:04:11.826Z,7.80
2019-02-18T17:06:38.589Z,7.70
2019-02-18T17:09:10.677Z,7.60
2019-02-18T17:11:38.053Z,7.70
2019-02-18T17:14:05.044Z,7.60
2019-02-18T17:21:26.721Z,7.10
2019-02-18T17:23:53.848Z,7.50
2019-02-18T17:36:08.954Z,6.00
2019-02-18T17:38:35.900Z,6.20
2019-02-18T17:41:02.762Z,6.10
2019-02-18T17:48:23.916Z,5.60
2019-02-18T17:58:14.058Z,5.50
2019-02-18T18:00:43.679Z,5.60
2019-02-18T18:03:10.907Z,5.50
2019-02-18T18:05:38.040Z,5.30
2019-02-18T18:08:05.049Z,5.10
2019-02-18T18:10:32.053Z,4.90
2019-02-18T18:13:01.733Z,4.80
2019-02-18T18:15:29.009Z,4.80
2019-02-18T18:17:55.908Z,4.80
2019-02-18T18:20:22.953Z,4.60
2019-02-18T18:22:49.864Z,4.50
2019-02-18T18:25:16.717Z,4.50
2019-02-18T18:27:43.805Z,4.50
2019-02-18T18:44:30.471Z,4.10
2019-02-18T18:47:10.383Z,3.60
2019-02-18T18:49:50.269Z,3.50
2019-02-18T18:52:30.242Z,3.70
2019-02-18T18:55:10.514Z,4.90
2019-02-18T19:00:52.028Z,3.70
2019-02-18T19:03:31.630Z,3.80
2019-02-18T19:06:11.634Z,3.30
2019-02-18T19:38:35.018Z,2.70
2019-02-18T19:52:52.097Z,3.90
2019-02-18T19:55:38.626Z,2.30
2019-02-18T19:58:25.422Z,3.90
2019-02-18T20:01:11.886Z,2.10
2019-02-18T20:03:58.827Z,2.90
2019-02-18T20:06:45.334Z,1.20
2019-02-18T20:09:31.798Z,2.80
2019-02-18T20:12:18.264Z,2.00
2019-02-18T20:14:45.115Z,2.10
2019-02-18T20:17:31.799Z,1.80
2019-02-18T20:29:00.221Z,1.40
2019-02-18T20:34:33.841Z,1.40
2019-02-18T20:37:20.457Z,1.80
2019-02-18T20:42:59.389Z,1.50
2019-02-18T20:45:38.900Z,1.50
2019-02-18T20:48:18.810Z,1.30
2019-02-18T20:50:58.729Z,1.60
2019-02-18T20:53:37.947Z,1.40
2019-02-18T20:56:18.103Z,1.20
2019-02-18T20:58:58.427Z,0.50
2019-02-18T21:01:38.374Z,0.50
2019-02-18T21:04:18.263Z,2.40
2019-02-18T21:06:58.393Z,1.60
2019-02-18T21:09:38.578Z,0.00
2019-02-18T21:12:20.003Z,1.80
2019-02-18T21:15:00.601Z,2.80
2019-02-18T21:17:40.670Z,0.20
2019-02-18T21:20:20.649Z,1.80
2019-02-18T21:23:00.749Z,1.90
2019-02-18T21:25:40.934Z,2.60
2019-02-18T21:28:21.053Z,1.70
2019-02-18T21:31:01.028Z,0.90
2019-02-18T21:33:41.361Z,1.20
2019-02-18T21:36:21.022Z,0.60
2019-02-18T21:39:00.838Z,2.10
2019-02-18T21:41:40.993Z,1.00
2019-02-18T21:44:25.170Z,1.60
2019-02-18T21:47:02.869Z,2.20
2019-02-18T21:49:43.235Z,1.60
2019-02-18T21:52:22.969Z,1.90
2019-02-18T21:55:02.874Z,1.20
2019-02-18T21:57:42.811Z,1.50
2019-02-18T22:00:23.596Z,1.50
2019-02-18T22:02:50.446Z,1.10
2019-02-18T22:05:38.846Z,1.00
2019-02-18T22:08:25.260Z,0.70
2019-02-18T22:11:11.660Z,0.70
2019-02-18T22:13:58.181Z,-0.10
2019-02-18T22:16:44.845Z,0.60
2019-02-18T22:19:31.262Z,0.50
2019-02-18T22:22:17.914Z,0.60
2019-02-18T22:25:05.012Z,0.70
2019-02-18T22:30:38.405Z,0.40
2019-02-18T22:33:25.118Z,0.80
2019-02-18T22:36:11.505Z,0.20
2019-02-18T22:38:51.554Z,1.40
2019-02-18T22:41:31.402Z,0.30
2019-02-18T22:44:11.762Z,0.70
2019-02-18T22:46:51.898Z,0.80
2019-02-18T22:49:31.970Z,1.10
2019-02-18T22:52:12.178Z,1.00
2019-02-18T22:54:52.446Z,1.10
2019-02-18T22:57:32.616Z,1.00
2019-02-18T23:00:12.846Z,1.00
2019-02-18T23:02:53.011Z,0.90
2019-02-18T23:05:32.951Z,0.90
2019-02-18T23:08:13.347Z,1.60
2019-02-18T23:10:53.517Z,0.90
2019-02-18T23:13:33.449Z,0.80
2019-02-18T23:16:13.618Z,0.60
2019-02-18T23:21:51.580Z,0.10
2019-02-18T23:24:31.699Z,-1.30
2019-02-18T23:27:11.912Z,-0.10
2019-02-18T23:29:51.930Z,-0.10
2019-02-18T23:32:31.114Z,0.10
2019-02-18T23:35:11.069Z,1.10
2019-02-18T23:37:51.142Z,-0.20
2019-02-18T23:40:30.413Z,0.10
2019-02-18T23:43:10.527Z,0.80
2019-02-18T23:45:49.718Z,1.70
2019-02-18T23:48:29.807Z,-0.20
2019-02-18T23:51:09.899Z,1.40
2019-02-18T23:53:49.844Z,-0.80
2019-02-18T23:56:29.884Z,0.10
2019-02-18T23:58:56.646Z,-0.30
